Detalii statie CEREAMIN SMEENI [00001CFD]

Toti senzorii

Date Temperatura solului [C]Precipitatii [mm]Voltaj baterie [mV]Leaf Wetness [Min]HC Air temperature [C]HC Relative humidity [%]Punctul de roua [C]
medieminmaxsumaultimatimpmedieminmaxmediemediemin
2019-10-19 22:00:00 13.1 13.1 13.3 0 6904 10.7 9.92 12.18 99.81 10.6 9.9
2019-10-19 23:00:00 12.9 12.8 13 0 6864 9.83 9.23 10.5 100 9.8 9.2
2019-10-20 00:00:00 12.7 12.5 12.9 0 6884 9.49 9.05 9.98 100 9.4 9
2019-10-20 01:00:00 12.5 12.4 12.7 0 6884 8.74 8.3 9.29 100 8.7 8.3
2019-10-20 02:00:00 12.3 12.2 12.5 0 6884 8.22 7.71 8.59 100 8.1 7.7
2019-10-20 03:00:00 12.1 12.1 12.2 0 6884 10.06 8.92 10.39 100 10 8.9
2019-10-20 04:00:00 12.2 12.1 12.3 0 6884 10.38 10.3 10.48 100 10.3 10.3
2019-10-20 05:00:00 12.2 12.2 12.4 0 6874 10.24 9.88 10.5 100 10.2 9.8
2019-10-20 06:00:00 12.2 12.2 12.3 0 6864 9.62 9.4 9.86 100 9.5 9.4
2019-10-20 07:00:00 12.2 12.2 12.4 0.2 6844 9.54 9.14 9.97 100 9.4 9.1
2019-10-20 08:00:00 12.2 12.1 12.3 0 6834 9.45 9.29 9.67 100 9.4 9.2
2019-10-20 09:00:00 12.2 12.2 12.3 0 6884 10.38 9.74 11.18 100 10.3 9.7
2019-10-20 10:00:00 12.3 12.2 12.5 0 6972 11.78 11.35 12.17 100 11.7 11.3
2019-10-20 11:00:00 12.5 12.3 12.6 0 7080 12.76 12.46 13.33 100 12.7 12.4
2019-10-20 12:00:00 12.7 12.5 12.9 0 7176 13.42 13.22 13.78 100 13.3 13.2
2019-10-20 13:00:00 13 13 13.2 0 7216 14.2 13.7 14.65 100 14.1 13.7
2019-10-20 14:00:00 13.4 13.3 13.6 0 7284 15.44 14.71 16.24 100 15.3 14.7
2019-10-20 15:00:00 13.7 13.6 14.1 0 7294 19.34 16.86 21.22 93.13 18 16.2
2019-10-20 16:00:00 14.3 14.1 14.5 0 7284 21.77 20.75 22.47 67.68 15.3 14.7
2019-10-20 17:00:00 14.6 14.4 14.8 0 7274 21.93 21.04 22.53 65.19 14.9 14.7
2019-10-20 18:00:00 14.6 14.6 14.8 0 7206 19.58 18.19 20.67 79.05 15.6 15.4
2019-10-20 19:00:00 14.5 14.3 14.7 0 7098 16.79 15.9 18.09 91.81 15.2 15
2019-10-20 20:00:00 14.2 14.1 14.4 0 7000 14.94 14.27 15.7 99.73 14.8 14.2
2019-10-20 21:00:00 14 14 14.1 0 6932 13.77 13.38 14.32 100 13.7 13.3
2019-10-20 22:00:00 13.7 13.6 13.9 0 6884 12.5 12.11 13.06 100 12.4 12.1
2019-10-20 23:00:00 13.5 13.4 13.6 0.2 6884 11.56 10.9 12.18 100 11.5 10.9
2019-10-21 00:00:00 13.3 13.2 13.5 0 6884 10.45 9.77 11 100 10.4 9.7
2019-10-21 01:00:00 13 13 13.2 0 6884 9.64 9.38 10 100 9.6 9.3
2019-10-21 02:00:00 12.8 12.7 13 0 6884 9.58 8.59 10.36 100 9.5 8.5
2019-10-21 03:00:00 12.7 12.5 12.8 0 6874 9.04 8.69 9.28 100 8.9 8.6
2019-10-21 04:00:00 12.6 12.5 12.7 0 6864 8.81 8.42 9.18 100 8.7 8.4
2019-10-21 05:00:00 12.5 12.5 12.6 0 6864 8 7.7 8.49 100 7.9 7.7
2019-10-21 06:00:00 12.4 12.3 12.6 0 6844 7.82 7.7 7.92 100 7.8 7.7
2019-10-21 07:00:00 12.4 12.2 12.5 0 6834 7.79 7.34 8.37 100 7.7 7.3
2019-10-21 08:00:00 12.2 12.2 12.4 0.2 6826 9.01 8.49 9.68 100 8.9 8.4
2019-10-21 09:00:00 12.3 12.2 12.5 0 6854 10.52 9.9 11 100 10.4 9.9
2019-10-21 10:00:00 12.4 12.2 12.5 0 6922 11.57 11.13 12.08 100 11.5 11.1
2019-10-21 11:00:00 12.6 12.5 12.8 0 7030 12.47 12.09 12.9 100 12.4 12
2019-10-21 12:00:00 12.8 12.7 13 0 7148 13.27 12.86 13.58 100 13.2 12.8
2019-10-21 13:00:00 13.1 12.8 13.3 0 7186 13.93 13.64 14.25 100 13.8 13.6
2019-10-21 14:00:00 13.4 13.2 13.6 0 7264 14.62 14.22 15.11 100 14.5 14.2
2019-10-21 15:00:00 13.7 13.6 14 0 7294 15.42 15 16.11 100 15.3 15
2019-10-21 16:00:00 14.1 13.9 14.3 0 7294 17.26 16.44 17.79 99.07 17 16.3
2019-10-21 17:00:00 14.3 14.2 14.4 0 7294 16.91 16.21 17.61 94.58 15.9 15.5
2019-10-21 18:00:00 14.3 14.2 14.5 0 7216 15.74 14.95 16.35 98.13 15.3 14.9
2019-10-21 19:00:00 14.1 14 14.2 0 7098 13.23 12.45 14.7 100 13.2 12.4
2019-10-21 20:00:00 13.7 13.6 14.1 0 7020 11.8 11.29 12.29 100 11.7 11.2
2019-10-21 21:00:00 13.5 13.3 13.8 0 6962 11.74 11 12.12 100 11.7 11